createdAt,value
2022-09-13T00:00:23.795Z,6.20
2022-09-13T00:02:52.302Z,6.70
2022-09-13T00:05:21.569Z,6.10
2022-09-13T00:07:50.300Z,6.27
2022-09-13T00:10:19.621Z,6.23
2022-09-13T00:12:50.763Z,6.00
2022-09-13T00:15:20.799Z,6.80
2022-09-13T00:17:49.362Z,6.40
2022-09-13T00:20:18.878Z,6.33
2022-09-13T00:22:49.963Z,6.50
2022-09-13T00:25:20.086Z,6.63
2022-09-13T00:27:48.417Z,6.43
2022-09-13T00:30:19.005Z,5.80
2022-09-13T00:32:47.117Z,6.20
2022-09-13T00:35:16.570Z,6.37
2022-09-13T00:37:44.732Z,6.20
2022-09-13T00:40:14.102Z,6.37
2022-09-13T00:42:42.466Z,6.60
2022-09-13T00:45:22.383Z,6.17
2022-09-13T00:47:54.708Z,5.93
2022-09-13T00:50:28.561Z,6.23
2022-09-13T00:53:00.645Z,5.93
2022-09-13T00:55:33.715Z,6.43
2022-09-13T00:58:06.050Z,6.30
2022-09-13T01:00:37.735Z,6.73
2022-09-13T01:03:08.926Z,6.07
2022-09-13T01:05:40.215Z,6.10
2022-09-13T01:08:12.854Z,6.90
2022-09-13T01:10:42.206Z,6.30
2022-09-13T01:13:15.122Z,6.10
2022-09-13T01:15:49.260Z,6.37
2022-09-13T01:18:17.736Z,5.57
2022-09-13T01:21:10.717Z,5.80
2022-09-13T01:23:57.654Z,5.37
2022-09-13T01:27:13.725Z,5.20
2022-09-13T01:30:12.655Z,4.80
2022-09-13T01:32:56.298Z,5.20
2022-09-13T01:35:29.677Z,5.70
2022-09-13T01:38:03.175Z,5.47
2022-09-13T01:40:44.110Z,6.00
2022-09-13T01:43:24.716Z,5.53
2022-09-13T01:46:00.681Z,5.50
2022-09-13T01:48:38.238Z,5.67
2022-09-13T01:51:08.647Z,5.70
2022-09-13T01:53:51.686Z,6.00
2022-09-13T01:56:24.556Z,6.27
2022-09-13T01:58:56.563Z,6.47
2022-09-13T02:01:31.572Z,6.30
2022-09-13T02:04:03.168Z,5.80
2022-09-13T02:06:34.827Z,6.20
2022-09-13T02:09:05.162Z,5.93
2022-09-13T02:11:35.113Z,6.03
2022-09-13T02:14:08.173Z,5.87
2022-09-13T02:16:41.489Z,6.10
2022-09-13T02:19:15.536Z,6.37
2022-09-13T02:21:47.948Z,6.20
2022-09-13T02:24:18.098Z,6.67
2022-09-13T02:26:49.202Z,6.20
2022-09-13T02:29:19.963Z,6.33
2022-09-13T02:31:52.635Z,5.77
2022-09-13T02:34:23.883Z,6.60
2022-09-13T02:36:54.958Z,5.50
2022-09-13T02:39:25.965Z,6.10
2022-09-13T02:41:57.985Z,5.93
2022-09-13T02:44:31.833Z,5.93
2022-09-13T02:47:13.353Z,6.67
2022-09-13T02:49:51.625Z,6.90
2022-09-13T02:52:25.441Z,5.83
2022-09-13T02:54:58.788Z,5.80
2022-09-13T02:57:31.439Z,6.53
2022-09-13T03:00:01.391Z,6.83
2022-09-13T03:02:34.231Z,6.93
2022-09-13T03:05:04.176Z,6.57
2022-09-13T03:07:32.411Z,6.53
2022-09-13T03:10:05.964Z,6.20
2022-09-13T03:12:54.923Z,7.10
2022-09-13T03:15:31.620Z,6.50
2022-09-13T03:18:08.911Z,6.57
2022-09-13T03:20:42.051Z,7.13
2022-09-13T03:23:29.081Z,6.90
2022-09-13T03:26:09.490Z,6.37
2022-09-13T03:28:48.334Z,6.67
2022-09-13T03:31:21.547Z,6.50
2022-09-13T03:33:58.788Z,5.80
2022-09-13T03:36:34.179Z,5.93
2022-09-13T03:39:14.920Z,5.33
2022-09-13T03:41:46.725Z,5.83
2022-09-13T03:44:18.421Z,6.30
2022-09-13T03:46:49.032Z,5.73
2022-09-13T03:49:20.696Z,5.87
2022-09-13T03:51:51.403Z,6.40
2022-09-13T03:54:22.793Z,6.93
2022-09-13T03:57:13.022Z,6.00
2022-09-13T03:59:44.974Z,6.47
2022-09-13T04:02:13.778Z,6.37
2022-09-13T04:04:47.978Z,7.00
2022-09-13T04:07:18.754Z,6.70
2022-09-13T04:09:49.839Z,6.70
2022-09-13T04:12:19.611Z,6.80
2022-09-13T04:14:47.903Z,6.30
2022-09-13T04:17:16.875Z,7.17
2022-09-13T04:19:50.071Z,7.70
2022-09-13T04:22:18.860Z,6.47
2022-09-13T04:24:46.966Z,6.20
2022-09-13T04:27:16.423Z,7.07
2022-09-13T04:29:47.228Z,6.77
2022-09-13T04:32:16.624Z,6.97
2022-09-13T04:34:50.572Z,6.47
2022-09-13T04:37:21.250Z,6.47
2022-09-13T04:39:49.658Z,6.03
2022-09-13T04:42:19.623Z,6.87
2022-09-13T04:44:50.370Z,7.97
2022-09-13T04:47:19.210Z,6.30
2022-09-13T04:49:50.900Z,7.13
2022-09-13T04:52:20.048Z,8.57
2022-09-13T04:54:48.906Z,7.27
2022-09-13T04:57:17.973Z,7.00
2022-09-13T04:59:49.792Z,7.53
2022-09-13T05:02:18.791Z,7.37
2022-09-13T05:04:48.384Z,7.40
2022-09-13T05:07:17.685Z,6.73
2022-09-13T05:09:50.096Z,6.47
2022-09-13T05:12:19.059Z,8.07
2022-09-13T05:14:49.549Z,7.90
2022-09-13T05:17:17.780Z,8.47
2022-09-13T05:19:52.882Z,8.27
2022-09-13T05:22:22.027Z,6.80
2022-09-13T05:24:50.405Z,8.13
2022-09-13T05:27:18.888Z,8.00
2022-09-13T05:29:47.406Z,8.03
2022-09-13T05:32:16.199Z,9.30
2022-09-13T05:34:48.477Z,9.37
2022-09-13T05:37:18.395Z,7.80
2022-09-13T05:40:10.216Z,7.87
2022-09-13T05:42:37.069Z,7.80
2022-09-13T05:45:07.757Z,7.10
2022-09-13T05:47:35.912Z,8.43
2022-09-13T05:50:19.155Z,7.90
2022-09-13T05:52:54.833Z,7.53
2022-09-13T05:55:25.228Z,7.93
2022-09-13T05:57:53.955Z,7.60
2022-09-13T06:00:23.551Z,8.57
2022-09-13T06:02:51.940Z,7.63
2022-09-13T06:05:21.452Z,8.40
2022-09-13T06:07:49.931Z,9.13
2022-09-13T06:10:25.587Z,7.90
2022-09-13T06:12:58.977Z,10.80
2022-09-13T06:15:28.571Z,10.20
2022-09-13T06:17:57.269Z,8.97
2022-09-13T06:20:29.152Z,10.00
2022-09-13T06:22:58.639Z,10.23
2022-09-13T06:25:28.516Z,9.37
2022-09-13T06:28:00.363Z,9.17
2022-09-13T06:30:29.081Z,8.70
2022-09-13T06:32:58.933Z,8.17
2022-09-13T06:35:28.602Z,8.07
2022-09-13T06:37:59.057Z,8.47
2022-09-13T06:40:29.442Z,8.70
2022-09-13T06:42:59.004Z,14.30
2022-09-13T06:45:27.861Z,34.10
2022-09-13T06:47:57.512Z,18.27
2022-09-13T06:50:26.079Z,12.90
2022-09-13T06:52:54.915Z,9.80
2022-09-13T06:55:25.200Z,9.00
2022-09-13T06:57:55.228Z,9.20
2022-09-13T07:00:24.468Z,8.50
2022-09-13T07:02:53.317Z,21.90
2022-09-13T07:05:23.353Z,62.40
2022-09-13T07:07:51.982Z,43.97
2022-09-13T07:10:21.501Z,23.80
2022-09-13T07:12:49.957Z,17.30
2022-09-13T07:15:20.604Z,12.50
2022-09-13T07:17:49.167Z,9.47
2022-09-13T07:20:19.076Z,7.80
2022-09-13T07:22:49.831Z,14.93
2022-09-13T07:25:19.038Z,14.60
2022-09-13T07:27:49.937Z,13.20
2022-09-13T07:30:20.724Z,10.27
2022-09-13T07:32:48.932Z,7.37
2022-09-13T07:35:18.310Z,6.20
2022-09-13T07:37:47.258Z,5.40
2022-09-13T07:40:16.803Z,6.87
2022-09-13T07:42:48.087Z,6.43
2022-09-13T07:45:18.109Z,4.03
2022-09-13T07:47:53.762Z,4.50
2022-09-13T07:50:23.083Z,4.20
2022-09-13T07:52:52.717Z,3.70
2022-09-13T07:55:22.216Z,3.73
2022-09-13T07:57:51.190Z,22.80
2022-09-13T08:00:21.040Z,10.40
2022-09-13T08:02:51.499Z,8.87
2022-09-13T08:05:21.221Z,4.70
2022-09-13T08:07:50.200Z,4.23
2022-09-13T08:10:20.030Z,6.20
2022-09-13T08:12:49.926Z,31.57
2022-09-13T08:15:19.439Z,22.47
2022-09-13T08:17:50.681Z,13.90
2022-09-13T08:20:21.462Z,8.73
2022-09-13T08:22:50.129Z,7.97
2022-09-13T08:25:19.320Z,8.53
2022-09-13T08:27:50.140Z,18.77
2022-09-13T08:30:19.401Z,20.40
2022-09-13T08:32:51.640Z,14.00
2022-09-13T08:35:21.559Z,4.50
2022-09-13T08:37:51.027Z,3.93
2022-09-13T08:40:20.239Z,3.87
2022-09-13T08:42:53.207Z,3.93
2022-09-13T08:45:23.326Z,4.63
2022-09-13T08:47:55.817Z,4.27
2022-09-13T08:50:28.974Z,6.20
2022-09-13T08:53:06.277Z,3.77
2022-09-13T08:55:51.504Z,3.97
2022-09-13T08:58:45.380Z,4.17
2022-09-13T09:01:22.096Z,4.53
2022-09-13T09:03:56.854Z,3.57
2022-09-13T09:06:26.890Z,2.90
2022-09-13T09:09:00.144Z,3.63
2022-09-13T09:11:37.665Z,4.30
2022-09-13T09:14:10.374Z,4.50
2022-09-13T09:16:42.649Z,4.90
2022-09-13T09:19:20.414Z,5.67
2022-09-13T09:21:52.677Z,4.87
2022-09-13T09:24:23.753Z,4.73
2022-09-13T09:26:54.683Z,3.90
2022-09-13T09:29:25.731Z,3.80
2022-09-13T09:32:03.601Z,4.17
2022-09-13T09:34:45.909Z,4.00
2022-09-13T09:37:22.298Z,3.87
2022-09-13T09:39:51.829Z,3.97
2022-09-13T09:42:22.744Z,3.10
2022-09-13T09:44:53.058Z,3.13
2022-09-13T09:47:28.548Z,3.80
2022-09-13T09:50:10.941Z,2.93
2022-09-13T09:52:45.220Z,3.70
2022-09-13T09:55:27.158Z,3.30
2022-09-13T09:57:59.030Z,3.00
2022-09-13T10:00:31.404Z,2.97
2022-09-13T10:03:02.564Z,3.30
2022-09-13T10:05:35.119Z,3.70
2022-09-13T10:08:07.117Z,3.13
2022-09-13T10:10:42.935Z,4.97
2022-09-13T10:13:17.340Z,4.27
2022-09-13T10:15:58.197Z,3.53
2022-09-13T10:18:45.335Z,4.17
2022-09-13T10:21:24.694Z,4.50
2022-09-13T10:24:17.862Z,3.27
2022-09-13T10:26:47.555Z,2.80
2022-09-13T10:29:17.739Z,2.80
2022-09-13T10:31:50.298Z,3.40
2022-09-13T10:34:21.878Z,6.87
2022-09-13T10:36:56.136Z,6.20
2022-09-13T10:39:26.964Z,3.43
2022-09-13T10:41:58.423Z,3.43
2022-09-13T10:44:31.289Z,3.30
2022-09-13T10:47:04.702Z,2.57
2022-09-13T10:49:37.800Z,2.97
2022-09-13T10:52:29.634Z,3.67
2022-09-13T10:55:33.636Z,2.73
2022-09-13T10:58:18.833Z,3.10
2022-09-13T11:01:15.465Z,2.50
2022-09-13T11:04:14.852Z,3.17
2022-09-13T11:06:46.321Z,3.17
2022-09-13T11:09:18.185Z,3.03
2022-09-13T11:11:58.731Z,3.70
2022-09-13T11:14:38.561Z,3.13
2022-09-13T11:17:17.080Z,2.90
2022-09-13T11:20:00.108Z,2.77
2022-09-13T11:22:37.924Z,3.60
2022-09-13T11:25:17.433Z,3.20
2022-09-13T11:27:53.249Z,3.17
2022-09-13T11:30:29.173Z,2.67
2022-09-13T11:33:25.911Z,2.97
2022-09-13T11:36:10.961Z,3.17
2022-09-13T11:38:51.567Z,2.93
2022-09-13T11:41:29.534Z,2.80
2022-09-13T11:44:18.453Z,2.70
2022-09-13T11:46:53.149Z,2.90
2022-09-13T11:49:32.873Z,3.20
2022-09-13T11:52:10.662Z,2.83
2022-09-13T11:54:56.161Z,2.80
2022-09-13T11:57:28.385Z,3.17
2022-09-13T12:00:02.100Z,2.90
2022-09-13T12:02:39.335Z,2.80
2022-09-13T12:05:22.562Z,2.53
2022-09-13T12:07:54.818Z,3.30
2022-09-13T12:10:26.581Z,3.20
2022-09-13T12:12:56.895Z,2.90
2022-09-13T12:15:37.133Z,2.53
2022-09-13T12:18:12.051Z,2.67
2022-09-13T12:20:45.029Z,3.23
2022-09-13T12:23:16.823Z,3.30
2022-09-13T12:25:50.666Z,3.07
2022-09-13T12:28:24.791Z,3.17
2022-09-13T12:30:58.649Z,3.30
2022-09-13T12:33:27.760Z,2.93
2022-09-13T12:36:12.306Z,3.20
2022-09-13T12:39:06.384Z,2.60
2022-09-13T12:41:48.863Z,2.93
2022-09-13T12:44:34.087Z,2.97
2022-09-13T12:47:24.076Z,2.77
2022-09-13T12:50:40.111Z,3.00
2022-09-13T12:53:08.443Z,2.73
2022-09-13T12:55:59.167Z,3.10
2022-09-13T12:58:51.407Z,3.67
2022-09-13T13:01:22.306Z,3.33
2022-09-13T13:03:55.616Z,2.90
2022-09-13T13:06:31.032Z,3.53
2022-09-13T13:09:03.648Z,2.97
2022-09-13T13:11:44.680Z,2.97
2022-09-13T13:14:48.397Z,2.80
2022-09-13T13:17:45.784Z,2.83
2022-09-13T13:20:46.130Z,3.53
2022-09-13T13:23:27.227Z,3.37
2022-09-13T13:26:13.955Z,2.47
2022-09-13T13:29:09.804Z,3.93
2022-09-13T13:31:41.107Z,3.30
2022-09-13T13:34:35.641Z,3.03
2022-09-13T13:37:07.427Z,2.90
2022-09-13T13:39:42.212Z,3.23
2022-09-13T13:42:24.726Z,3.53
2022-09-13T13:45:16.974Z,2.83
2022-09-13T13:48:14.088Z,2.33
2022-09-13T13:51:15.537Z,2.47
2022-09-13T13:53:51.799Z,2.40
2022-09-13T13:56:32.691Z,2.40
2022-09-13T13:59:06.634Z,3.00
2022-09-13T14:01:38.234Z,3.00
2022-09-13T14:04:52.554Z,2.53
2022-09-13T14:07:36.984Z,2.37
2022-09-13T14:10:13.344Z,2.90
2022-09-13T14:12:57.699Z,2.70
2022-09-13T14:15:39.788Z,3.37
2022-09-13T14:18:51.286Z,3.40
2022-09-13T14:21:23.562Z,3.43
2022-09-13T14:23:53.674Z,3.37
2022-09-13T14:26:24.468Z,3.17
2022-09-13T14:28:53.515Z,3.33
2022-09-13T14:31:23.143Z,3.10
2022-09-13T14:33:52.990Z,3.10
2022-09-13T14:36:24.214Z,10.10
2022-09-13T14:38:55.639Z,5.00
2022-09-13T14:41:34.458Z,2.73
2022-09-13T14:44:23.712Z,2.80
2022-09-13T14:47:02.324Z,2.73
2022-09-13T14:49:34.878Z,2.13
2022-09-13T14:52:07.930Z,3.13
2022-09-13T14:54:39.763Z,2.47
2022-09-13T14:57:17.253Z,2.17
2022-09-13T14:59:50.349Z,2.23
2022-09-13T15:02:21.923Z,2.20
2022-09-13T15:04:53.121Z,2.30
2022-09-13T15:07:24.285Z,2.93
2022-09-13T15:09:57.383Z,2.90
2022-09-13T15:12:28.275Z,2.13
2022-09-13T15:15:26.227Z,2.80
2022-09-13T15:17:58.245Z,3.50
2022-09-13T15:20:28.070Z,2.77
2022-09-13T15:22:56.445Z,2.97
2022-09-13T15:25:27.642Z,2.90
2022-09-13T15:27:58.778Z,2.50
2022-09-13T15:30:29.550Z,2.60
2022-09-13T15:33:17.932Z,2.93
2022-09-13T15:35:48.499Z,3.10
2022-09-13T15:38:28.920Z,2.87
2022-09-13T15:41:03.640Z,2.50
2022-09-13T15:43:34.354Z,2.40
2022-09-13T15:46:03.069Z,2.60
2022-09-13T15:48:32.855Z,2.47
2022-09-13T15:51:10.909Z,2.90
2022-09-13T15:53:41.223Z,2.80
2022-09-13T15:56:14.491Z,1.90
2022-09-13T15:58:48.495Z,2.57
2022-09-13T16:01:18.609Z,2.20
2022-09-13T16:03:50.734Z,2.50
2022-09-13T16:06:24.433Z,2.80
2022-09-13T16:08:53.095Z,2.80
2022-09-13T16:11:22.726Z,2.60
2022-09-13T16:13:53.080Z,2.70
2022-09-13T16:16:22.870Z,2.60
2022-09-13T16:18:51.779Z,2.80
2022-09-13T16:21:21.034Z,2.57
2022-09-13T16:23:50.627Z,3.00
2022-09-13T16:26:20.404Z,2.63
2022-09-13T16:28:48.747Z,3.30
2022-09-13T16:31:20.395Z,3.40
2022-09-13T16:33:48.746Z,3.37
2022-09-13T16:36:18.668Z,2.90
2022-09-13T16:38:47.935Z,2.60
2022-09-13T16:41:16.649Z,3.03
2022-09-13T16:43:45.985Z,2.70
2022-09-13T16:46:14.961Z,2.40
2022-09-13T16:48:44.795Z,2.80
2022-09-13T16:51:14.089Z,2.90
2022-09-13T16:53:43.214Z,2.43
2022-09-13T16:56:13.211Z,2.60
2022-09-13T16:58:43.204Z,2.23
2022-09-13T17:01:13.249Z,2.50
2022-09-13T17:03:42.712Z,2.63
2022-09-13T17:06:13.933Z,3.10
2022-09-13T17:08:44.366Z,2.33
2022-09-13T17:11:15.878Z,2.60
2022-09-13T17:13:44.402Z,2.43
2022-09-13T17:16:23.307Z,2.80
2022-09-13T17:18:51.894Z,2.90
2022-09-13T17:21:21.909Z,2.70
2022-09-13T17:23:50.272Z,3.20
2022-09-13T17:26:18.443Z,2.90
2022-09-13T17:28:47.191Z,2.50
2022-09-13T17:31:15.995Z,2.80
2022-09-13T17:33:46.780Z,3.10
2022-09-13T17:36:15.962Z,3.03
2022-09-13T17:38:45.872Z,2.87
2022-09-13T17:41:15.478Z,2.70
2022-09-13T17:43:46.482Z,2.43
2022-09-13T17:46:16.270Z,3.33
2022-09-13T17:48:48.589Z,3.03
2022-09-13T17:51:19.665Z,2.70
2022-09-13T17:53:53.181Z,3.40
2022-09-13T17:56:22.956Z,2.83
2022-09-13T17:58:51.340Z,3.00
2022-09-13T18:01:20.003Z,2.90
2022-09-13T18:03:51.000Z,2.97
2022-09-13T18:06:19.513Z,3.77
2022-09-13T18:08:54.700Z,2.80
2022-09-13T18:11:23.709Z,2.77
2022-09-13T18:13:52.971Z,2.97
2022-09-13T18:16:23.120Z,3.00
2022-09-13T18:18:52.475Z,2.97
2022-09-13T18:21:22.632Z,3.10
2022-09-13T18:23:54.845Z,3.10
2022-09-13T18:26:24.978Z,3.50
2022-09-13T18:28:58.577Z,3.10
2022-09-13T18:31:27.727Z,2.93
2022-09-13T18:33:58.098Z,3.50
2022-09-13T18:36:28.022Z,3.73
2022-09-13T18:38:58.569Z,3.00
2022-09-13T18:41:28.884Z,3.00
2022-09-13T18:43:57.542Z,3.10
2022-09-13T18:46:27.800Z,2.97
2022-09-13T18:48:57.770Z,3.43
2022-09-13T18:51:28.331Z,3.23
2022-09-13T18:53:59.611Z,3.23
2022-09-13T18:56:29.032Z,3.10
2022-09-13T18:58:58.330Z,3.50
2022-09-13T19:01:28.999Z,3.40
2022-09-13T19:03:59.497Z,4.40
2022-09-13T19:06:30.854Z,4.00
2022-09-13T19:09:01.946Z,4.97
2022-09-13T19:11:46.422Z,3.90
2022-09-13T19:14:17.343Z,4.97
2022-09-13T19:16:47.196Z,4.87
2022-09-13T19:19:17.753Z,4.50
2022-09-13T19:21:49.215Z,4.90
2022-09-13T19:24:20.824Z,4.63
2022-09-13T19:26:52.214Z,5.03
2022-09-13T19:29:22.399Z,5.30
2022-09-13T19:31:52.965Z,5.60
2022-09-13T19:34:23.320Z,5.40
2022-09-13T19:36:58.181Z,5.23
2022-09-13T19:39:30.497Z,5.00
2022-09-13T19:42:00.852Z,5.33
2022-09-13T19:44:30.032Z,6.03
2022-09-13T19:47:45.067Z,5.60
2022-09-13T19:49:49.958Z,5.50
2022-09-13T19:52:18.823Z,5.67
2022-09-13T19:54:52.203Z,5.37
2022-09-13T19:57:21.138Z,5.60
2022-09-13T19:59:49.750Z,5.80
2022-09-13T20:02:18.355Z,6.20
2022-09-13T20:04:49.746Z,6.80
2022-09-13T20:07:18.313Z,6.17
2022-09-13T20:09:53.959Z,5.70
2022-09-13T20:12:23.913Z,7.83
2022-09-13T20:14:52.547Z,6.37
2022-09-13T20:17:21.859Z,7.37
2022-09-13T20:19:51.792Z,6.40
2022-09-13T20:22:20.355Z,7.20
2022-09-13T20:24:50.253Z,6.57
2022-09-13T20:27:19.027Z,7.53
2022-09-13T20:29:49.241Z,7.80
2022-09-13T20:32:18.072Z,7.60
2022-09-13T20:34:48.975Z,6.50
2022-09-13T20:37:17.658Z,8.10
2022-09-13T20:39:46.570Z,7.87
2022-09-13T20:42:17.389Z,6.97
2022-09-13T20:44:46.421Z,7.40
2022-09-13T20:47:15.304Z,7.87
2022-09-13T20:49:43.630Z,6.93
2022-09-13T20:52:14.753Z,6.17
2022-09-13T20:54:43.283Z,6.50
2022-09-13T20:57:11.591Z,7.40
2022-09-13T20:59:41.326Z,7.20
2022-09-13T21:02:10.747Z,7.67
2022-09-13T21:04:39.035Z,7.23
2022-09-13T21:07:24.993Z,6.70
2022-09-13T21:09:53.207Z,7.20
2022-09-13T21:12:21.535Z,7.50
2022-09-13T21:14:52.716Z,7.40
2022-09-13T21:17:21.303Z,6.40
2022-09-13T21:19:50.218Z,6.10
2022-09-13T21:22:18.439Z,5.50
2022-09-13T21:24:47.485Z,4.67
2022-09-13T21:27:15.681Z,5.03
2022-09-13T21:29:43.880Z,5.03
2022-09-13T21:32:13.903Z,4.90
2022-09-13T21:34:46.328Z,4.50
2022-09-13T21:37:14.540Z,4.40
2022-09-13T21:39:42.890Z,4.70
2022-09-13T21:42:11.177Z,4.67
2022-09-13T21:44:39.820Z,5.20
2022-09-13T21:47:08.085Z,5.47
2022-09-13T21:49:37.889Z,5.60
2022-09-13T21:52:08.157Z,4.80
2022-09-13T21:54:37.250Z,5.60
2022-09-13T21:57:06.390Z,5.73
2022-09-13T21:59:35.295Z,5.73
2022-09-13T22:02:05.322Z,5.03
2022-09-13T22:04:34.658Z,5.00
2022-09-13T22:07:05.711Z,5.60
2022-09-13T22:09:34.574Z,5.53
2022-09-13T22:12:04.266Z,5.47
2022-09-13T22:14:33.298Z,5.23
2022-09-13T22:17:02.834Z,5.40
2022-09-13T22:19:31.853Z,4.70
2022-09-13T22:22:01.401Z,5.33
2022-09-13T22:24:32.819Z,5.57
2022-09-13T22:27:02.733Z,5.10
2022-09-13T22:29:31.353Z,5.50
2022-09-13T22:32:00.874Z,6.03
2022-09-13T22:34:31.025Z,6.33
2022-09-13T22:37:00.545Z,5.77
2022-09-13T22:39:29.136Z,6.37
2022-09-13T22:41:59.698Z,6.50
2022-09-13T22:44:28.295Z,6.10
2022-09-13T22:47:00.433Z,6.23
2022-09-13T22:49:29.268Z,6.10
2022-09-13T22:51:58.249Z,6.60
2022-09-13T22:54:28.603Z,6.30
2022-09-13T22:56:56.870Z,5.67
2022-09-13T22:59:26.558Z,6.53
2022-09-13T23:01:54.621Z,6.83
2022-09-13T23:04:23.150Z,6.90
2022-09-13T23:06:51.292Z,6.93
2022-09-13T23:09:19.999Z,7.17
2022-09-13T23:11:48.914Z,7.00
2022-09-13T23:14:19.963Z,6.47
2022-09-13T23:16:51.824Z,6.97
2022-09-13T23:19:22.599Z,7.57
2022-09-13T23:21:50.736Z,6.93
2022-09-13T23:24:19.945Z,7.03
2022-09-13T23:26:48.292Z,6.73
2022-09-13T23:29:17.842Z,7.10
2022-09-13T23:31:47.145Z,7.27
2022-09-13T23:34:17.810Z,7.33
2022-09-13T23:36:46.510Z,6.80
2022-09-13T23:39:17.661Z,6.93
2022-09-13T23:41:46.452Z,6.70
2022-09-13T23:44:14.947Z,7.00
2022-09-13T23:46:43.152Z,7.20
2022-09-13T23:49:11.637Z,7.37
2022-09-13T23:51:41.599Z,6.93
2022-09-13T23:54:10.162Z,8.20
2022-09-13T23:56:38.516Z,6.93
2022-09-13T23:59:07.099Z,7.70
